sensor_id;sensor_type;location;lat;lon;timestamp;pressure;altitude;pressure_sealevel;temperature;humidity
48015;BME280;33780;51.034;7.120;2022-08-19T00:01:29;100500.13;;;20.39;63.05
48015;BME280;33780;51.034;7.120;2022-08-19T00:03:59;100495.94;;;20.37;63.14
48015;BME280;33780;51.034;7.120;2022-08-19T00:06:26;100499.72;;;20.36;63.50
48015;BME280;33780;51.034;7.120;2022-08-19T00:08:52;100502.63;;;20.34;63.50
48015;BME280;33780;51.034;7.120;2022-08-19T00:11:17;100510.16;;;20.32;63.48
48015;BME280;33780;51.034;7.120;2022-08-19T00:13:43;100503.25;;;20.30;63.43
48015;BME280;33780;51.034;7.120;2022-08-19T00:16:10;100504.25;;;20.29;63.52
48015;BME280;33780;51.034;7.120;2022-08-19T00:18:36;100500.69;;;20.28;63.42
48015;BME280;33780;51.034;7.120;2022-08-19T00:21:02;100502.78;;;20.26;63.15
48015;BME280;33780;51.034;7.120;2022-08-19T00:23:28;100498.59;;;20.23;63.57
48015;BME280;33780;51.034;7.120;2022-08-19T00:25:53;100510.69;;;20.21;63.46
48015;BME280;33780;51.034;7.120;2022-08-19T00:28:19;100505.66;;;20.18;63.67
48015;BME280;33780;51.034;7.120;2022-08-19T00:30:45;100498.75;;;20.15;63.64
48015;BME280;33780;51.034;7.120;2022-08-19T00:33:11;100507.09;;;20.14;63.52
48015;BME280;33780;51.034;7.120;2022-08-19T00:35:36;100505.44;;;20.13;63.64
48015;BME280;33780;51.034;7.120;2022-08-19T00:38:04;100508.34;;;20.11;63.73
48015;BME280;33780;51.034;7.120;2022-08-19T00:40:30;100505.16;;;20.08;63.80
48015;BME280;33780;51.034;7.120;2022-08-19T00:42:56;100502.66;;;20.06;63.98
48015;BME280;33780;51.034;7.120;2022-08-19T00:45:24;100503.88;;;20.04;63.90
48015;BME280;33780;51.034;7.120;2022-08-19T00:47:50;100495.94;;;20.02;63.98
48015;BME280;33780;51.034;7.120;2022-08-19T00:50:18;100498.03;;;20.00;63.85
48015;BME280;33780;51.034;7.120;2022-08-19T00:52:47;100491.13;;;19.98;63.72
48015;BME280;33780;51.034;7.120;2022-08-19T00:55:23;100500.31;;;19.97;63.65
48015;BME280;33780;51.034;7.120;2022-08-19T00:57:56;100498.81;;;19.94;63.88
48015;BME280;33780;51.034;7.120;2022-08-19T01:00:22;100502.13;;;19.89;63.99
48015;BME280;33780;51.034;7.120;2022-08-19T01:02:48;100503.16;;;19.88;63.78
48015;BME280;33780;51.034;7.120;2022-08-19T01:05:20;100502.72;;;19.85;63.85
48015;BME280;33780;51.034;7.120;2022-08-19T01:07:47;100502.91;;;19.83;63.89
48015;BME280;33780;51.034;7.120;2022-08-19T01:10:15;100504.16;;;19.81;63.89
48015;BME280;33780;51.034;7.120;2022-08-19T01:12:41;100507.69;;;19.81;63.99
48015;BME280;33780;51.034;7.120;2022-08-19T01:15:09;100504.53;;;19.78;64.01
48015;BME280;33780;51.034;7.120;2022-08-19T01:17:38;100495.75;;;19.76;64.00
48015;BME280;33780;51.034;7.120;2022-08-19T01:20:05;100495.94;;;19.74;64.05
48015;BME280;33780;51.034;7.120;2022-08-19T01:22:40;100496.34;;;19.71;64.00
48015;BME280;33780;51.034;7.120;2022-08-19T01:25:08;100496.53;;;19.70;64.30
48015;BME280;33780;51.034;7.120;2022-08-19T01:27:38;100496.72;;;19.68;64.19
48015;BME280;33780;51.034;7.120;2022-08-19T01:30:05;100500.47;;;19.67;64.15
48015;BME280;33780;51.034;7.120;2022-08-19T01:32:31;100497.75;;;19.67;64.26
48015;BME280;33780;51.034;7.120;2022-08-19T01:34:56;100484.38;;;19.66;64.30
48015;BME280;33780;51.034;7.120;2022-08-19T01:37:22;100482.91;;;19.63;64.11
48015;BME280;33780;51.034;7.120;2022-08-19T01:39:48;100484.78;;;19.63;64.32
48015;BME280;33780;51.034;7.120;2022-08-19T01:42:14;100479.56;;;19.61;64.30
48015;BME280;33780;51.034;7.120;2022-08-19T01:44:40;100483.50;;;19.58;63.90
48015;BME280;33780;51.034;7.120;2022-08-19T01:47:07;100486.41;;;19.57;64.14
48015;BME280;33780;51.034;7.120;2022-08-19T01:49:34;100484.06;;;19.54;64.22
48015;BME280;33780;51.034;7.120;2022-08-19T01:52:00;100474.41;;;19.51;64.25
48015;BME280;33780;51.034;7.120;2022-08-19T01:54:26;100476.28;;;19.51;64.41
48015;BME280;33780;51.034;7.120;2022-08-19T01:56:56;100472.94;;;19.49;64.38
48015;BME280;33780;51.034;7.120;2022-08-19T01:59:23;100473.97;;;19.48;64.13
48015;BME280;33780;51.034;7.120;2022-08-19T02:01:49;100485.03;;;19.46;64.53
48015;BME280;33780;51.034;7.120;2022-08-19T02:04:14;100496.09;;;19.45;64.59
48015;BME280;33780;51.034;7.120;2022-08-19T02:06:40;100493.56;;;19.43;64.69
48015;BME280;33780;51.034;7.120;2022-08-19T02:09:06;100506.31;;;19.43;64.66
48015;BME280;33780;51.034;7.120;2022-08-19T02:11:33;100502.09;;;19.40;64.78
48015;BME280;33780;51.034;7.120;2022-08-19T02:14:01;100503.97;;;19.40;64.59
48015;BME280;33780;51.034;7.120;2022-08-19T02:16:29;100502.47;;;19.37;64.83
48015;BME280;33780;51.034;7.120;2022-08-19T02:18:55;100496.19;;;19.37;64.76
48015;BME280;33780;51.034;7.120;2022-08-19T02:21:22;100494.72;;;19.34;64.67
48015;BME280;33780;51.034;7.120;2022-08-19T02:23:48;100494.91;;;19.32;64.96
48015;BME280;33780;51.034;7.120;2022-08-19T02:26:16;100496.16;;;19.30;64.81
48015;BME280;33780;51.034;7.120;2022-08-19T02:28:42;100491.75;;;19.29;64.80
48015;BME280;33780;51.034;7.120;2022-08-19T02:31:12;100500.94;;;19.28;64.62
48015;BME280;33780;51.034;7.120;2022-08-19T02:33:40;100496.75;;;19.25;64.81
48015;BME280;33780;51.034;7.120;2022-08-19T02:36:07;100494.41;;;19.22;64.67
48015;BME280;33780;51.034;7.120;2022-08-19T02:38:33;100494.78;;;19.19;64.73
48015;BME280;33780;51.034;7.120;2022-08-19T02:41:02;100497.88;;;19.16;64.84
48015;BME280;33780;51.034;7.120;2022-08-19T02:43:30;100499.94;;;19.14;64.81
48015;BME280;33780;51.034;7.120;2022-08-19T02:45:55;100503.91;;;19.12;64.95
48015;BME280;33780;51.034;7.120;2022-08-19T02:48:23;100507.63;;;19.11;64.82
48015;BME280;33780;51.034;7.120;2022-08-19T02:50:51;100515.13;;;19.09;64.89
48015;BME280;33780;51.034;7.120;2022-08-19T02:53:22;100520.75;;;19.07;65.05
48015;BME280;33780;51.034;7.120;2022-08-19T02:55:49;100526.38;;;19.06;64.92
48015;BME280;33780;51.034;7.120;2022-08-19T02:58:15;100519.28;;;19.05;64.99
48015;BME280;33780;51.034;7.120;2022-08-19T03:00:46;100506.91;;;19.02;65.04
48015;BME280;33780;51.034;7.120;2022-08-19T03:03:12;100507.75;;;19.02;65.12
48015;BME280;33780;51.034;7.120;2022-08-19T03:05:39;100500.63;;;19.01;65.03
48015;BME280;33780;51.034;7.120;2022-08-19T03:08:05;100496.25;;;19.00;64.97
48015;BME280;33780;51.034;7.120;2022-08-19T03:10:31;100494.56;;;18.99;65.04
48015;BME280;33780;51.034;7.120;2022-08-19T03:12:57;100503.09;;;18.96;64.93
48015;BME280;33780;51.034;7.120;2022-08-19T03:15:22;100504.13;;;18.95;64.96
48015;BME280;33780;51.034;7.120;2022-08-19T03:17:47;100507.03;;;18.94;65.04
48015;BME280;33780;51.034;7.120;2022-08-19T03:20:12;100505.56;;;18.91;65.20
48015;BME280;33780;51.034;7.120;2022-08-19T03:22:38;100510.13;;;18.91;64.98
48015;BME280;33780;51.034;7.120;2022-08-19T03:25:03;100515.09;;;18.87;64.92
48015;BME280;33780;51.034;7.120;2022-08-19T03:27:29;100519.88;;;18.85;65.21
48015;BME280;33780;51.034;7.120;2022-08-19T03:29:54;100526.50;;;18.83;65.12
48015;BME280;33780;51.034;7.120;2022-08-19T03:32:20;100520.44;;;18.81;65.11
48015;BME280;33780;51.034;7.120;2022-08-19T03:34:46;100525.19;;;18.79;65.39
48015;BME280;33780;51.034;7.120;2022-08-19T03:37:12;100519.97;;;18.77;65.56
48015;BME280;33780;51.034;7.120;2022-08-19T03:39:38;100525.59;;;18.76;65.64
48015;BME280;33780;51.034;7.120;2022-08-19T03:42:04;100529.16;;;18.76;65.55
48015;BME280;33780;51.034;7.120;2022-08-19T03:44:31;100523.91;;;18.75;65.49
48015;BME280;33780;51.034;7.120;2022-08-19T03:46:58;100523.06;;;18.74;65.38
48015;BME280;33780;51.034;7.120;2022-08-19T03:49:28;100526.81;;;18.73;65.55
48015;BME280;33780;51.034;7.120;2022-08-19T03:51:56;100522.44;;;18.72;65.58
48015;BME280;33780;51.034;7.120;2022-08-19T03:54:23;100530.75;;;18.70;65.62
48015;BME280;33780;51.034;7.120;2022-08-19T03:56:50;100528.22;;;18.69;65.73
48015;BME280;33780;51.034;7.120;2022-08-19T03:59:22;100529.41;;;18.66;65.67
48015;BME280;33780;51.034;7.120;2022-08-19T04:01:52;100528.78;;;18.64;65.73
48015;BME280;33780;51.034;7.120;2022-08-19T04:04:17;100527.09;;;18.63;65.54
48015;BME280;33780;51.034;7.120;2022-08-19T04:06:43;100532.50;;;18.63;65.67
48015;BME280;33780;51.034;7.120;2022-08-19T04:09:11;100531.84;;;18.61;65.74
48015;BME280;33780;51.034;7.120;2022-08-19T04:11:40;100529.50;;;18.58;65.57
48015;BME280;33780;51.034;7.120;2022-08-19T04:14:08;100530.72;;;18.56;65.75
48015;BME280;33780;51.034;7.120;2022-08-19T04:16:33;100533.44;;;18.56;65.79
48015;BME280;33780;51.034;7.120;2022-08-19T04:19:04;100534.47;;;18.55;66.03
48015;BME280;33780;51.034;7.120;2022-08-19T04:21:30;100539.06;;;18.54;66.28
48015;BME280;33780;51.034;7.120;2022-08-19T04:23:56;100541.94;;;18.53;65.68
48015;BME280;33780;51.034;7.120;2022-08-19T04:26:24;100545.50;;;18.53;65.85
48015;BME280;33780;51.034;7.120;2022-08-19T04:28:50;100548.22;;;18.53;66.24
48015;BME280;33780;51.034;7.120;2022-08-19T04:31:25;100551.94;;;18.52;66.09
48015;BME280;33780;51.034;7.120;2022-08-19T04:33:52;100552.97;;;18.51;66.10
48015;BME280;33780;51.034;7.120;2022-08-19T04:36:30;100562.13;;;18.50;66.06
48015;BME280;33780;51.034;7.120;2022-08-19T04:38:57;100556.72;;;18.50;66.01
48015;BME280;33780;51.034;7.120;2022-08-19T04:41:26;100555.88;;;18.50;66.41
48015;BME280;33780;51.034;7.120;2022-08-19T04:44:12;100551.47;;;18.49;66.00
48015;BME280;33780;51.034;7.120;2022-08-19T04:46:37;100565.88;;;18.49;66.09
48015;BME280;33780;51.034;7.120;2022-08-19T04:49:10;100560.47;;;18.49;66.22
48015;BME280;33780;51.034;7.120;2022-08-19T04:51:36;100566.03;;;18.48;66.02
48015;BME280;33780;51.034;7.120;2022-08-19T04:54:03;100565.19;;;18.47;66.31
48015;BME280;33780;51.034;7.120;2022-08-19T04:56:31;100563.31;;;18.48;66.34
48015;BME280;33780;51.034;7.120;2022-08-19T04:58:56;100560.63;;;18.48;66.22
48015;BME280;33780;51.034;7.120;2022-08-19T05:01:25;100559.59;;;18.49;66.15
48015;BME280;33780;51.034;7.120;2022-08-19T05:03:59;100564.16;;;18.48;66.58
48015;BME280;33780;51.034;7.120;2022-08-19T05:06:26;100560.47;;;18.49;66.55
48015;BME280;33780;51.034;7.120;2022-08-19T05:08:53;100562.97;;;18.51;66.56
48015;BME280;33780;51.034;7.120;2022-08-19T05:11:25;100562.97;;;18.51;66.68
48015;BME280;33780;51.034;7.120;2022-08-19T05:13:51;100570.09;;;18.52;66.59
48015;BME280;33780;51.034;7.120;2022-08-19T05:16:18;100570.09;;;18.52;66.56
48015;BME280;33780;51.034;7.120;2022-08-19T05:18:45;100572.78;;;18.52;66.80
48015;BME280;33780;51.034;7.120;2022-08-19T05:21:29;100578.03;;;18.53;66.72
48015;BME280;33780;51.034;7.120;2022-08-19T05:24:14;100583.44;;;18.53;66.84
48015;BME280;33780;51.034;7.120;2022-08-19T05:26:45;100574.28;;;18.54;66.81
48015;BME280;33780;51.034;7.120;2022-08-19T05:29:12;100581.56;;;18.54;66.92
48015;BME280;33780;51.034;7.120;2022-08-19T05:31:38;100582.22;;;18.56;66.98
48015;BME280;33780;51.034;7.120;2022-08-19T05:34:11;100573.25;;;18.55;66.86
48015;BME280;33780;51.034;7.120;2022-08-19T05:36:40;100573.91;;;18.57;66.88
48015;BME280;33780;51.034;7.120;2022-08-19T05:39:11;100576.44;;;18.59;66.80
48015;BME280;33780;51.034;7.120;2022-08-19T05:41:42;100581.66;;;18.60;67.13
48015;BME280;33780;51.034;7.120;2022-08-19T05:44:10;100589.78;;;18.60;67.04
48015;BME280;33780;51.034;7.120;2022-08-19T05:46:37;100590.63;;;18.61;66.92
48015;BME280;33780;51.034;7.120;2022-08-19T05:49:07;100593.34;;;18.61;66.96
48015;BME280;33780;51.034;7.120;2022-08-19T05:51:34;100587.91;;;18.61;67.18
48015;BME280;33780;51.034;7.120;2022-08-19T05:54:01;100587.91;;;18.61;67.21
48015;BME280;33780;51.034;7.120;2022-08-19T05:56:27;100586.03;;;18.61;67.39
48015;BME280;33780;51.034;7.120;2022-08-19T05:58:55;100580.47;;;18.63;67.34
48015;BME280;33780;51.034;7.120;2022-08-19T06:01:20;100584.84;;;18.64;67.32
48015;BME280;33780;51.034;7.120;2022-08-19T06:03:46;100584.00;;;18.63;67.23
48015;BME280;33780;51.034;7.120;2022-08-19T06:06:14;100574.84;;;18.64;67.48
48015;BME280;33780;51.034;7.120;2022-08-19T06:08:40;100581.13;;;18.65;67.18
48015;BME280;33780;51.034;7.120;2022-08-19T06:13:46;100571.94;;;18.66;67.41
48015;BME280;33780;51.034;7.120;2022-08-19T06:16:17;100569.94;;;18.68;67.44
48015;BME280;33780;51.034;7.120;2022-08-19T06:18:46;100572.44;;;18.69;67.70
48015;BME280;33780;51.034;7.120;2022-08-19T06:21:11;100574.97;;;18.71;67.92
48015;BME280;33780;51.034;7.120;2022-08-19T06:23:36;100572.91;;;18.73;67.92
48015;BME280;33780;51.034;7.120;2022-08-19T06:26:04;100573.75;;;18.74;67.87
48015;BME280;33780;51.034;7.120;2022-08-19T06:28:30;100584.22;;;18.77;67.83
48015;BME280;33780;51.034;7.120;2022-08-19T06:30:55;100579.44;;;18.79;67.81
48015;BME280;33780;51.034;7.120;2022-08-19T06:33:20;100588.03;;;18.82;67.90
48015;BME280;33780;51.034;7.120;2022-08-19T06:35:51;100580.53;;;18.84;67.88
48015;BME280;33780;51.034;7.120;2022-08-19T06:38:16;100582.91;;;18.87;67.86
48015;BME280;33780;51.034;7.120;2022-08-19T06:40:41;100579.81;;;18.90;68.42
48015;BME280;33780;51.034;7.120;2022-08-19T06:43:07;100585.69;;;18.94;67.99
48015;BME280;33780;51.034;7.120;2022-08-19T06:45:32;100582.41;;;18.98;67.94
48015;BME280;33780;51.034;7.120;2022-08-19T06:47:57;100588.28;;;19.02;68.17
48015;BME280;33780;51.034;7.120;2022-08-19T06:50:24;100594.84;;;19.08;68.36
48015;BME280;33780;51.034;7.120;2022-08-19T06:52:49;100596.13;;;19.12;68.60
48015;BME280;33780;51.034;7.120;2022-08-19T06:55:15;100589.47;;;19.14;68.53
48015;BME280;33780;51.034;7.120;2022-08-19T06:57:41;100592.66;;;19.18;68.60
48015;BME280;33780;51.034;7.120;2022-08-19T07:00:08;100590.22;;;19.23;68.70
48015;BME280;33780;51.034;7.120;2022-08-19T07:02:38;100595.91;;;19.28;69.01
48015;BME280;33780;51.034;7.120;2022-08-19T07:05:03;100594.69;;;19.30;69.12
48015;BME280;33780;51.034;7.120;2022-08-19T07:07:29;100593.06;;;19.36;69.10
48015;BME280;33780;51.034;7.120;2022-08-19T07:09:56;100599.41;;;19.43;69.34
48015;BME280;33780;51.034;7.120;2022-08-19T07:12:21;100590.50;;;19.49;69.17
48015;BME280;33780;51.034;7.120;2022-08-19T07:14:47;100602.13;;;19.58;69.39
48015;BME280;33780;51.034;7.120;2022-08-19T07:17:13;100594.03;;;19.65;69.50
48015;BME280;33780;51.034;7.120;2022-08-19T07:19:39;100602.88;;;19.73;69.75
48015;BME280;33780;51.034;7.120;2022-08-19T07:22:06;100601.72;;;19.82;69.84
48015;BME280;33780;51.034;7.120;2022-08-19T07:24:32;100605.13;;;19.91;70.38
48015;BME280;33780;51.034;7.120;2022-08-19T07:27:00;100609.19;;;20.02;70.28
48015;BME280;33780;51.034;7.120;2022-08-19T07:29:29;100610.75;;;20.11;70.48
48015;BME280;33780;51.034;7.120;2022-08-19T07:31:55;100603.09;;;20.21;70.78
48015;BME280;33780;51.034;7.120;2022-08-19T07:34:23;100610.06;;;20.30;70.96
48015;BME280;33780;51.034;7.120;2022-08-19T07:36:49;100600.72;;;20.39;71.00
48015;BME280;33780;51.034;7.120;2022-08-19T07:39:20;100614.19;;;20.47;71.50
48015;BME280;33780;51.034;7.120;2022-08-19T07:41:46;100615.91;;;20.55;71.71
48015;BME280;33780;51.034;7.120;2022-08-19T07:44:13;100616.78;;;20.62;71.66
48015;BME280;33780;51.034;7.120;2022-08-19T07:46:42;100613.91;;;20.70;71.38
48015;BME280;33780;51.034;7.120;2022-08-19T07:49:10;100612.91;;;20.78;71.42
48015;BME280;33780;51.034;7.120;2022-08-19T07:52:07;100613.59;;;20.87;71.47
48015;BME280;33780;51.034;7.120;2022-08-19T07:54:32;100622.00;;;20.98;71.18
48015;BME280;33780;51.034;7.120;2022-08-19T07:56:59;100620.16;;;21.05;71.19
48015;BME280;33780;51.034;7.120;2022-08-19T07:59:25;100621.22;;;21.11;70.96
48015;BME280;33780;51.034;7.120;2022-08-19T08:01:51;100619.56;;;21.17;70.76
48015;BME280;33780;51.034;7.120;2022-08-19T08:04:18;100622.34;;;21.23;70.62
48015;BME280;33780;51.034;7.120;2022-08-19T08:07:03;100626.78;;;21.31;70.78
48015;BME280;33780;51.034;7.120;2022-08-19T08:09:47;100631.22;;;21.38;70.60
48015;BME280;33780;51.034;7.120;2022-08-19T08:12:17;100645.69;;;21.46;70.80
48015;BME280;33780;51.034;7.120;2022-08-19T08:14:49;100649.88;;;21.48;70.67
48015;BME280;33780;51.034;7.120;2022-08-19T08:17:16;100650.72;;;21.49;70.63
48015;BME280;33780;51.034;7.120;2022-08-19T08:19:43;100643.38;;;21.49;70.66
48015;BME280;33780;51.034;7.120;2022-08-19T08:22:10;100654.91;;;21.51;70.68
48015;BME280;33780;51.034;7.120;2022-08-19T08:25:04;100649.06;;;21.54;70.05
48015;BME280;33780;51.034;7.120;2022-08-19T08:27:29;100661.44;;;21.57;70.07
48015;BME280;33780;51.034;7.120;2022-08-19T08:29:56;100649.72;;;21.56;70.16
48015;BME280;33780;51.034;7.120;2022-08-19T08:32:22;100649.50;;;21.58;69.96
48015;BME280;33780;51.034;7.120;2022-08-19T08:34:47;100650.97;;;21.60;70.06
48015;BME280;33780;51.034;7.120;2022-08-19T08:37:13;100651.19;;;21.59;69.52
48015;BME280;33780;51.034;7.120;2022-08-19T08:39:38;100651.19;;;21.59;69.19
48015;BME280;33780;51.034;7.120;2022-08-19T08:42:26;100651.59;;;21.62;69.38
48015;BME280;33780;51.034;7.120;2022-08-19T08:44:58;100653.69;;;21.67;69.03
48015;BME280;33780;51.034;7.120;2022-08-19T08:47:25;100642.19;;;21.65;68.25
48015;BME280;33780;51.034;7.120;2022-08-19T08:50:16;100642.38;;;21.63;68.62
48015;BME280;33780;51.034;7.120;2022-08-19T08:52:49;100639.44;;;21.58;68.33
48015;BME280;33780;51.034;7.120;2022-08-19T08:55:17;100648.88;;;21.56;68.48
48015;BME280;33780;51.034;7.120;2022-08-19T08:57:52;100653.47;;;21.55;68.45
48015;BME280;33780;51.034;7.120;2022-08-19T09:00:26;100657.44;;;21.53;68.13
48015;BME280;33780;51.034;7.120;2022-08-19T09:02:54;100658.94;;;21.55;68.05
48015;BME280;33780;51.034;7.120;2022-08-19T09:05:23;100650.97;;;21.60;68.28
48015;BME280;33780;51.034;7.120;2022-08-19T09:08:06;100650.97;;;21.67;68.36
48015;BME280;33780;51.034;7.120;2022-08-19T09:16:21;100655.00;;;21.84;67.74
48015;BME280;33780;51.034;7.120;2022-08-19T09:18:55;100646.03;;;21.90;67.82
48015;BME280;33780;51.034;7.120;2022-08-19T09:21:23;100644.97;;;21.98;67.87
48015;BME280;33780;51.034;7.120;2022-08-19T09:23:49;100635.56;;;22.07;68.36
48015;BME280;33780;51.034;7.120;2022-08-19T09:26:17;100640.19;;;22.20;67.81
48015;BME280;33780;51.034;7.120;2022-08-19T09:28:45;100643.97;;;22.32;67.73
48015;BME280;33780;51.034;7.120;2022-08-19T09:31:22;100649.41;;;22.39;66.68
48015;BME280;33780;51.034;7.120;2022-08-19T09:33:48;100639.34;;;22.46;66.44
48015;BME280;33780;51.034;7.120;2022-08-19T09:36:15;100631.75;;;22.54;66.68
48015;BME280;33780;51.034;7.120;2022-08-19T09:38:40;100636.16;;;22.62;66.41
48015;BME280;33780;51.034;7.120;2022-08-19T09:41:08;100637.44;;;22.66;64.98
48015;BME280;33780;51.034;7.120;2022-08-19T09:43:34;100634.66;;;22.73;64.84
48015;BME280;33780;51.034;7.120;2022-08-19T09:46:02;100635.69;;;22.78;64.52
48015;BME280;33780;51.034;7.120;2022-08-19T09:48:31;100634.25;;;22.89;65.01
48015;BME280;33780;51.034;7.120;2022-08-19T09:51:03;100631.25;;;22.97;65.05
48015;BME280;33780;51.034;7.120;2022-08-19T09:53:28;100635.06;;;22.96;63.60
48015;BME280;33780;51.034;7.120;2022-08-19T09:55:57;100642.00;;;22.99;63.42
48015;BME280;33780;51.034;7.120;2022-08-19T09:58:22;100624.97;;;23.03;63.20
48015;BME280;33780;51.034;7.120;2022-08-19T10:00:52;100625.75;;;23.10;63.32
48015;BME280;33780;51.034;7.120;2022-08-19T10:03:18;100623.44;;;23.14;63.55
48015;BME280;33780;51.034;7.120;2022-08-19T10:05:44;100636.88;;;23.15;63.76
48015;BME280;33780;51.034;7.120;2022-08-19T10:08:26;100632.06;;;23.11;62.21
48015;BME280;33780;51.034;7.120;2022-08-19T10:10:52;100622.41;;;23.08;62.83
48015;BME280;33780;51.034;7.120;2022-08-19T10:13:20;100625.56;;;23.12;63.14
48015;BME280;33780;51.034;7.120;2022-08-19T10:15:50;100627.44;;;23.11;63.38
48015;BME280;33780;51.034;7.120;2022-08-19T10:18:19;100616.09;;;23.14;62.92
48015;BME280;33780;51.034;7.120;2022-08-19T10:20:47;100608.53;;;23.16;63.17
48015;BME280;33780;51.034;7.120;2022-08-19T10:23:12;100628.66;;;23.22;63.36
48015;BME280;33780;51.034;7.120;2022-08-19T10:25:38;100630.56;;;23.21;62.80
48015;BME280;33780;51.034;7.120;2022-08-19T10:28:04;100632.03;;;23.24;62.50
48015;BME280;33780;51.034;7.120;2022-08-19T10:30:31;100639.38;;;23.24;61.65
48015;BME280;33780;51.034;7.120;2022-08-19T10:32:57;100623.38;;;23.27;61.67
48015;BME280;33780;51.034;7.120;2022-08-19T10:35:22;100628.00;;;23.27;62.26
48015;BME280;33780;51.034;7.120;2022-08-19T10:37:48;100630.91;;;23.32;61.52
48015;BME280;33780;51.034;7.120;2022-08-19T10:40:13;100627.56;;;23.36;60.59
48015;BME280;33780;51.034;7.120;2022-08-19T10:42:38;100628.41;;;23.37;60.47
48015;BME280;33780;51.034;7.120;2022-08-19T10:45:05;100627.13;;;23.39;60.14
48015;BME280;33780;51.034;7.120;2022-08-19T10:47:32;100628.19;;;23.38;60.20
48015;BME280;33780;51.034;7.120;2022-08-19T10:49:57;100619.31;;;23.43;60.57
48015;BME280;33780;51.034;7.120;2022-08-19T10:52:46;100614.25;;;23.46;60.42
48015;BME280;33780;51.034;7.120;2022-08-19T10:55:11;100628.31;;;23.50;60.08
48015;BME280;33780;51.034;7.120;2022-08-19T10:58:03;100615.06;;;23.54;59.33
48015;BME280;33780;51.034;7.120;2022-08-19T11:00:28;100616.34;;;23.58;59.62
48015;BME280;33780;51.034;7.120;2022-08-19T11:02:59;100611.25;;;23.61;58.88
48015;BME280;33780;51.034;7.120;2022-08-19T11:05:24;100608.91;;;23.65;58.62
48015;BME280;33780;51.034;7.120;2022-08-19T11:07:50;100607.22;;;23.70;58.47
48015;BME280;33780;51.034;7.120;2022-08-19T11:10:16;100618.31;;;23.75;56.94
48015;BME280;33780;51.034;7.120;2022-08-19T11:12:45;100617.66;;;23.80;58.08
48015;BME280;33780;51.034;7.120;2022-08-19T11:15:11;100610.97;;;23.76;56.18
48015;BME280;33780;51.034;7.120;2022-08-19T11:17:40;100597.75;;;23.73;56.97
48015;BME280;33780;51.034;7.120;2022-08-19T11:20:10;100596.84;;;23.79;56.94
48015;BME280;33780;51.034;7.120;2022-08-19T11:22:37;100590.47;;;23.85;57.07
48015;BME280;33780;51.034;7.120;2022-08-19T11:25:10;100595.91;;;23.92;57.42
48015;BME280;33780;51.034;7.120;2022-08-19T11:27:42;100602.38;;;23.97;56.62
48015;BME280;33780;51.034;7.120;2022-08-19T11:30:12;100579.84;;;24.02;56.77
48015;BME280;33780;51.034;7.120;2022-08-19T11:32:38;100581.94;;;24.06;57.35
48015;BME280;33780;51.034;7.120;2022-08-19T11:35:03;100581.41;;;24.16;57.46
48015;BME280;33780;51.034;7.120;2022-08-19T11:37:29;100584.72;;;24.25;57.05
48015;BME280;33780;51.034;7.120;2022-08-19T11:39:54;100600.06;;;24.26;56.93
48015;BME280;33780;51.034;7.120;2022-08-19T11:42:20;100593.09;;;24.23;56.12
48015;BME280;33780;51.034;7.120;2022-08-19T11:45:04;100595.47;;;24.20;55.66
48015;BME280;33780;51.034;7.120;2022-08-19T11:47:30;100587.94;;;24.15;55.58
48015;BME280;33780;51.034;7.120;2022-08-19T11:49:55;100582.91;;;24.12;55.41
48015;BME280;33780;51.034;7.120;2022-08-19T11:52:21;100586.88;;;24.16;55.48
48015;BME280;33780;51.034;7.120;2022-08-19T11:54:46;100581.56;;;24.21;55.70
48015;BME280;33780;51.034;7.120;2022-08-19T11:57:12;100572.47;;;24.27;55.94
48015;BME280;33780;51.034;7.120;2022-08-19T11:59:39;100576.00;;;24.34;55.06
48015;BME280;33780;51.034;7.120;2022-08-19T12:02:05;100585.59;;;24.44;54.95
48015;BME280;33780;51.034;7.120;2022-08-19T12:04:30;100576.03;;;24.53;55.06
48015;BME280;33780;51.034;7.120;2022-08-19T12:06:56;100580.38;;;24.60;54.42
48015;BME280;33780;51.034;7.120;2022-08-19T12:09:21;100574.00;;;24.66;53.20
48015;BME280;33780;51.034;7.120;2022-08-19T12:11:47;100572.00;;;24.74;53.56
48015;BME280;33780;51.034;7.120;2022-08-19T12:14:13;100575.50;;;24.81;52.79
48015;BME280;33780;51.034;7.120;2022-08-19T12:16:39;100569.72;;;24.89;53.67
48015;BME280;33780;51.034;7.120;2022-08-19T12:19:07;100567.53;;;24.97;53.54
48015;BME280;33780;51.034;7.120;2022-08-19T12:21:34;100583.06;;;25.04;52.74
48015;BME280;33780;51.034;7.120;2022-08-19T12:24:02;100572.84;;;25.11;52.66
48015;BME280;33780;51.034;7.120;2022-08-19T12:26:29;100567.53;;;25.16;52.68
48015;BME280;33780;51.034;7.120;2022-08-19T12:28:54;100569.31;;;25.22;53.09
48015;BME280;33780;51.034;7.120;2022-08-19T12:31:20;100570.28;;;25.27;52.61
48015;BME280;33780;51.034;7.120;2022-08-19T12:33:46;100572.13;;;25.34;52.08
48015;BME280;33780;51.034;7.120;2022-08-19T12:36:13;100572.63;;;25.42;52.08
48015;BME280;33780;51.034;7.120;2022-08-19T12:38:40;100564.53;;;25.47;51.95
48015;BME280;33780;51.034;7.120;2022-08-19T12:41:07;100567.19;;;25.54;51.49
48015;BME280;33780;51.034;7.120;2022-08-19T12:43:34;100554.22;;;25.61;51.58
48015;BME280;33780;51.034;7.120;2022-08-19T12:46:00;100561.31;;;25.69;50.86
48015;BME280;33780;51.034;7.120;2022-08-19T12:48:25;100564.16;;;25.74;50.47
48015;BME280;33780;51.034;7.120;2022-08-19T12:50:50;100555.72;;;25.75;48.50
48015;BME280;33780;51.034;7.120;2022-08-19T12:53:16;100548.44;;;25.81;48.93
48015;BME280;33780;51.034;7.120;2022-08-19T12:55:41;100542.88;;;25.87;49.60
48015;BME280;33780;51.034;7.120;2022-08-19T12:58:08;100547.63;;;25.92;49.39
48015;BME280;33780;51.034;7.120;2022-08-19T13:00:33;100552.16;;;25.98;48.71
48015;BME280;33780;51.034;7.120;2022-08-19T13:03:02;100548.69;;;26.03;49.30